sensor_id;sensor_type;location;lat;lon;timestamp;temperature;humidity
17007;DHT22;8620;51.168;4.154;2023-05-14T07:01:44;15.00;99.90
17007;DHT22;8620;51.168;4.154;2023-05-14T07:04:10;15.10;99.90
17007;DHT22;8620;51.168;4.154;2023-05-14T07:06:39;15.10;99.90
17007;DHT22;8620;51.168;4.154;2023-05-14T07:09:08;15.20;99.90
17007;DHT22;8620;51.168;4.154;2023-05-14T07:11:35;14.70;99.90
17007;DHT22;8620;51.168;4.154;2023-05-14T07:14:20;14.70;99.90
17007;DHT22;8620;51.168;4.154;2023-05-14T07:16:46;14.80;99.90
17007;DHT22;8620;51.168;4.154;2023-05-14T07:19:12;14.60;99.90
17007;DHT22;8620;51.168;4.154;2023-05-14T07:21:41;15.10;99.90
17007;DHT22;8620;51.168;4.154;2023-05-14T07:24:27;15.30;99.90
17007;DHT22;8620;51.168;4.154;2023-05-14T07:27:08;15.60;99.90
17007;DHT22;8620;51.168;4.154;2023-05-14T07:30:12;15.40;99.90
17007;DHT22;8620;51.168;4.154;2023-05-14T07:33:15;15.20;99.90
17007;DHT22;8620;51.168;4.154;2023-05-14T07:36:18;15.30;99.90
17007;DHT22;8620;51.168;4.154;2023-05-14T07:38:50;15.70;99.90
17007;DHT22;8620;51.168;4.154;2023-05-14T07:41:59;15.90;99.90
17007;DHT22;8620;51.168;4.154;2023-05-14T07:44:28;15.80;99.90
17007;DHT22;8620;51.168;4.154;2023-05-14T07:47:11;15.20;99.90
17007;DHT22;8620;51.168;4.154;2023-05-14T07:49:45;15.20;99.90
17007;DHT22;8620;51.168;4.154;2023-05-14T07:55:56;15.40;99.90
17007;DHT22;8620;51.168;4.154;2023-05-14T07:58:38;15.70;99.90
17007;DHT22;8620;51.168;4.154;2023-05-14T08:01:29;15.90;99.90
17007;DHT22;8620;51.168;4.154;2023-05-14T08:04:19;15.70;99.90
17007;DHT22;8620;51.168;4.154;2023-05-14T08:07:08;15.50;99.90
17007;DHT22;8620;51.168;4.154;2023-05-14T08:09:36;15.60;99.90
17007;DHT22;8620;51.168;4.154;2023-05-14T08:12:40;15.50;99.90
17007;DHT22;8620;51.168;4.154;2023-05-14T08:15:12;15.60;99.90
17007;DHT22;8620;51.168;4.154;2023-05-14T08:17:54;15.80;99.90
17007;DHT22;8620;51.168;4.154;2023-05-14T08:20:29;15.70;99.90
17007;DHT22;8620;51.168;4.154;2023-05-14T08:22:58;15.90;99.90
17007;DHT22;8620;51.168;4.154;2023-05-14T08:25:27;15.70;99.90
17007;DHT22;8620;51.168;4.154;2023-05-14T08:28:06;15.80;99.90
17007;DHT22;8620;51.168;4.154;2023-05-14T08:30:43;15.90;99.90
17007;DHT22;8620;51.168;4.154;2023-05-14T08:33:44;16.30;99.90
17007;DHT22;8620;51.168;4.154;2023-05-14T08:36:36;16.10;99.90
17007;DHT22;8620;51.168;4.154;2023-05-14T08:39:34;16.20;99.90
17007;DHT22;8620;51.168;4.154;2023-05-14T08:42:11;16.00;99.90
17007;DHT22;8620;51.168;4.154;2023-05-14T08:45:42;16.10;99.90
17007;DHT22;8620;51.168;4.154;2023-05-14T08:48:12;16.20;99.90
17007;DHT22;8620;51.168;4.154;2023-05-14T08:51:07;16.60;99.90
17007;DHT22;8620;51.168;4.154;2023-05-14T08:53:57;16.90;99.90
17007;DHT22;8620;51.168;4.154;2023-05-14T08:56:50;17.10;99.90
17007;DHT22;8620;51.168;4.154;2023-05-14T08:59:25;17.10;99.90
17007;DHT22;8620;51.168;4.154;2023-05-14T09:02:19;17.10;99.90
17007;DHT22;8620;51.168;4.154;2023-05-14T09:05:21;16.80;99.90
17007;DHT22;8620;51.168;4.154;2023-05-14T09:11:41;17.60;99.90
17007;DHT22;8620;51.168;4.154;2023-05-14T09:14:40;18.10;99.90
17007;DHT22;8620;51.168;4.154;2023-05-14T09:17:20;18.20;99.90
17007;DHT22;8620;51.168;4.154;2023-05-14T09:20:00;18.60;99.90
17007;DHT22;8620;51.168;4.154;2023-05-14T09:22:39;18.80;99.90
17007;DHT22;8620;51.168;4.154;2023-05-14T09:25:19;19.10;99.90
17007;DHT22;8620;51.168;4.154;2023-05-14T09:28:11;19.20;99.90
17007;DHT22;8620;51.168;4.154;2023-05-14T09:30:49;19.00;99.90
17007;DHT22;8620;51.168;4.154;2023-05-14T09:33:32;18.80;99.90
17007;DHT22;8620;51.168;4.154;2023-05-14T09:36:09;18.90;99.90
17007;DHT22;8620;51.168;4.154;2023-05-14T09:38:46;19.60;99.90
17007;DHT22;8620;51.168;4.154;2023-05-14T09:41:23;20.40;99.90
17007;DHT22;8620;51.168;4.154;2023-05-14T09:44:00;21.00;99.90
17007;DHT22;8620;51.168;4.154;2023-05-14T09:46:34;21.40;99.90
17007;DHT22;8620;51.168;4.154;2023-05-14T09:49:23;21.90;99.90
17007;DHT22;8620;51.168;4.154;2023-05-14T09:52:00;21.60;99.90
17007;DHT22;8620;51.168;4.154;2023-05-14T09:54:37;22.00;99.90
17007;DHT22;8620;51.168;4.154;2023-05-14T09:57:22;22.00;99.90
17007;DHT22;8620;51.168;4.154;2023-05-14T09:59:59;22.00;99.90
17007;DHT22;8620;51.168;4.154;2023-05-14T10:02:40;21.80;99.90
17007;DHT22;8620;51.168;4.154;2023-05-14T10:05:13;22.00;99.90
17007;DHT22;8620;51.168;4.154;2023-05-14T10:07:52;21.80;99.90
17007;DHT22;8620;51.168;4.154;2023-05-14T10:10:28;21.80;99.90
17007;DHT22;8620;51.168;4.154;2023-05-14T10:13:24;22.20;99.90
17007;DHT22;8620;51.168;4.154;2023-05-14T10:16:23;21.80;99.90
17007;DHT22;8620;51.168;4.154;2023-05-14T10:19:14;21.90;99.90
17007;DHT22;8620;51.168;4.154;2023-05-14T10:36:40;21.60;99.90
17007;DHT22;8620;51.168;4.154;2023-05-14T10:39:43;21.50;99.90
17007;DHT22;8620;51.168;4.154;2023-05-14T10:48:49;21.90;99.90
17007;DHT22;8620;51.168;4.154;2023-05-14T10:52:00;20.90;99.90
17007;DHT22;8620;51.168;4.154;2023-05-14T10:54:29;21.80;99.90
17007;DHT22;8620;51.168;4.154;2023-05-14T10:57:44;22.30;99.90
17007;DHT22;8620;51.168;4.154;2023-05-14T11:00:50;22.20;99.90
17007;DHT22;8620;51.168;4.154;2023-05-14T11:07:08;24.10;99.90
17007;DHT22;8620;51.168;4.154;2023-05-14T11:16:46;24.90;99.90
17007;DHT22;8620;51.168;4.154;2023-05-14T11:19:52;22.90;99.90
17007;DHT22;8620;51.168;4.154;2023-05-14T11:22:43;22.30;99.90
17007;DHT22;8620;51.168;4.154;2023-05-14T11:25:39;22.40;99.90
17007;DHT22;8620;51.168;4.154;2023-05-14T11:31:43;22.70;99.90
17007;DHT22;8620;51.168;4.154;2023-05-14T11:34:44;23.00;99.90
17007;DHT22;8620;51.168;4.154;2023-05-14T11:37:42;23.60;99.90
17007;DHT22;8620;51.168;4.154;2023-05-14T11:40:34;22.40;99.90
17007;DHT22;8620;51.168;4.154;2023-05-14T11:43:37;21.80;99.90
17007;DHT22;8620;51.168;4.154;2023-05-14T11:46:52;22.50;99.90
17007;DHT22;8620;51.168;4.154;2023-05-14T11:49:41;23.10;99.90
17007;DHT22;8620;51.168;4.154;2023-05-14T11:52:39;23.10;99.90
17007;DHT22;8620;51.168;4.154;2023-05-14T11:55:37;23.40;99.90
17007;DHT22;8620;51.168;4.154;2023-05-14T11:58:27;22.70;99.90
17007;DHT22;8620;51.168;4.154;2023-05-14T12:01:34;22.10;99.90
17007;DHT22;8620;51.168;4.154;2023-05-14T12:04:23;21.60;99.90
17007;DHT22;8620;51.168;4.154;2023-05-14T12:07:39;21.40;99.90
17007;DHT22;8620;51.168;4.154;2023-05-14T12:10:47;21.20;99.90
17007;DHT22;8620;51.168;4.154;2023-05-14T12:14:08;21.70;99.90
17007;DHT22;8620;51.168;4.154;2023-05-14T12:17:10;21.90;99.90
17007;DHT22;8620;51.168;4.154;2023-05-14T12:20:15;22.70;99.90
17007;DHT22;8620;51.168;4.154;2023-05-14T12:23:18;23.30;99.90
17007;DHT22;8620;51.168;4.154;2023-05-14T12:26:31;23.50;99.90
17007;DHT22;8620;51.168;4.154;2023-05-14T12:29:35;23.40;99.90
17007;DHT22;8620;51.168;4.154;2023-05-14T12:32:37;22.40;99.90
17007;DHT22;8620;51.168;4.154;2023-05-14T12:38:48;21.90;99.90
17007;DHT22;8620;51.168;4.154;2023-05-14T12:42:21;22.10;99.90
17007;DHT22;8620;51.168;4.154;2023-05-14T12:45:25;21.60;99.90
17007;DHT22;8620;51.168;4.154;2023-05-14T12:48:25;21.90;99.90
17007;DHT22;8620;51.168;4.154;2023-05-14T12:51:26;22.10;99.90
17007;DHT22;8620;51.168;4.154;2023-05-14T12:54:30;22.30;99.90
17007;DHT22;8620;51.168;4.154;2023-05-14T12:57:48;21.80;99.90
17007;DHT22;8620;51.168;4.154;2023-05-14T13:00:49;21.70;99.90
17007;DHT22;8620;51.168;4.154;2023-05-14T13:03:53;21.80;99.90
17007;DHT22;8620;51.168;4.154;2023-05-14T13:07:06;22.00;99.90
17007;DHT22;8620;51.168;4.154;2023-05-14T13:09:59;22.10;99.90
17007;DHT22;8620;51.168;4.154;2023-05-14T13:13:07;22.50;99.90
17007;DHT22;8620;51.168;4.154;2023-05-14T13:15:56;22.20;99.90
17007;DHT22;8620;51.168;4.154;2023-05-14T13:19:18;22.50;99.90
17007;DHT22;8620;51.168;4.154;2023-05-14T13:22:22;22.80;99.90
17007;DHT22;8620;51.168;4.154;2023-05-14T13:25:07;22.90;99.90
17007;DHT22;8620;51.168;4.154;2023-05-14T13:28:09;22.50;99.90
17007;DHT22;8620;51.168;4.154;2023-05-14T13:34:07;22.80;99.90
17007;DHT22;8620;51.168;4.154;2023-05-14T13:37:13;23.10;99.90
17007;DHT22;8620;51.168;4.154;2023-05-14T13:40:17;23.00;99.90
17007;DHT22;8620;51.168;4.154;2023-05-14T13:43:21;22.90;99.90
17007;DHT22;8620;51.168;4.154;2023-05-14T13:46:43;23.10;99.90
17007;DHT22;8620;51.168;4.154;2023-05-14T13:49:47;22.90;99.90
17007;DHT22;8620;51.168;4.154;2023-05-14T13:52:51;22.40;99.90
17007;DHT22;8620;51.168;4.154;2023-05-14T13:56:02;22.40;99.90
17007;DHT22;8620;51.168;4.154;2023-05-14T13:59:08;22.30;99.90
17007;DHT22;8620;51.168;4.154;2023-05-14T14:01:56;22.40;99.90
17007;DHT22;8620;51.168;4.154;2023-05-14T14:05:00;22.60;99.90
17007;DHT22;8620;51.168;4.154;2023-05-14T14:08:09;22.50;99.90
17007;DHT22;8620;51.168;4.154;2023-05-14T14:11:15;22.50;99.90
17007;DHT22;8620;51.168;4.154;2023-05-14T14:14:21;22.20;99.90
17007;DHT22;8620;51.168;4.154;2023-05-14T14:17:24;22.20;99.90
17007;DHT22;8620;51.168;4.154;2023-05-14T14:20:45;21.80;99.90
17007;DHT22;8620;51.168;4.154;2023-05-14T14:24:06;21.50;99.90
17007;DHT22;8620;51.168;4.154;2023-05-14T14:27:07;21.00;99.90
17007;DHT22;8620;51.168;4.154;2023-05-14T14:30:17;21.00;99.90
17007;DHT22;8620;51.168;4.154;2023-05-14T14:33:13;21.20;99.90
17007;DHT22;8620;51.168;4.154;2023-05-14T14:36:16;21.20;99.90
17007;DHT22;8620;51.168;4.154;2023-05-14T14:39:02;21.10;99.90
17007;DHT22;8620;51.168;4.154;2023-05-14T14:42:16;21.00;99.90
17007;DHT22;8620;51.168;4.154;2023-05-14T14:45:05;20.50;99.90
17007;DHT22;8620;51.168;4.154;2023-05-14T14:48:20;20.60;99.90
17007;DHT22;8620;51.168;4.154;2023-05-14T14:51:26;20.60;99.90
17007;DHT22;8620;51.168;4.154;2023-05-14T14:54:14;20.40;99.90
17007;DHT22;8620;51.168;4.154;2023-05-14T14:57:18;20.30;99.90
17007;DHT22;8620;51.168;4.154;2023-05-14T15:03:40;20.00;99.90
17007;DHT22;8620;51.168;4.154;2023-05-14T15:06:51;19.70;99.90
17007;DHT22;8620;51.168;4.154;2023-05-14T15:09:57;19.80;99.90
17007;DHT22;8620;51.168;4.154;2023-05-14T15:13:04;19.80;99.90
17007;DHT22;8620;51.168;4.154;2023-05-14T15:16:09;20.00;99.90
17007;DHT22;8620;51.168;4.154;2023-05-14T15:22:26;19.70;99.90
17007;DHT22;8620;51.168;4.154;2023-05-14T15:25:32;19.70;99.90
17007;DHT22;8620;51.168;4.154;2023-05-14T15:28:38;19.60;99.90
17007;DHT22;8620;51.168;4.154;2023-05-14T15:32:01;19.60;99.90
17007;DHT22;8620;51.168;4.154;2023-05-14T15:35:08;19.50;99.90
17007;DHT22;8620;51.168;4.154;2023-05-14T15:38:16;19.80;99.90
17007;DHT22;8620;51.168;4.154;2023-05-14T15:41:17;19.80;99.90
17007;DHT22;8620;51.168;4.154;2023-05-14T15:47:28;18.90;99.90
17007;DHT22;8620;51.168;4.154;2023-05-14T15:50:34;19.00;99.90
17007;DHT22;8620;51.168;4.154;2023-05-14T15:53:52;18.50;99.90
17007;DHT22;8620;51.168;4.154;2023-05-14T15:56:56;18.10;99.90
17007;DHT22;8620;51.168;4.154;2023-05-14T15:59:57;17.90;99.90
17007;DHT22;8620;51.168;4.154;2023-05-14T16:02:45;18.10;99.90
17007;DHT22;8620;51.168;4.154;2023-05-14T16:05:40;18.50;99.90
17007;DHT22;8620;51.168;4.154;2023-05-14T16:08:09;18.50;99.90
17007;DHT22;8620;51.168;4.154;2023-05-14T16:10:59;18.60;99.90
17007;DHT22;8620;51.168;4.154;2023-05-14T16:13:32;18.40;99.90
17007;DHT22;8620;51.168;4.154;2023-05-14T16:16:00;18.10;99.90
17007;DHT22;8620;51.168;4.154;2023-05-14T16:18:49;18.10;99.90
17007;DHT22;8620;51.168;4.154;2023-05-14T16:21:39;18.10;99.90
17007;DHT22;8620;51.168;4.154;2023-05-14T16:24:35;18.20;99.90
17007;DHT22;8620;51.168;4.154;2023-05-14T16:30:40;18.30;99.90
17007;DHT22;8620;51.168;4.154;2023-05-14T16:33:24;18.00;99.90
17007;DHT22;8620;51.168;4.154;2023-05-14T16:36:01;18.00;99.90
17007;DHT22;8620;51.168;4.154;2023-05-14T16:38:40;18.10;99.90
17007;DHT22;8620;51.168;4.154;2023-05-14T16:41:35;18.20;99.90
17007;DHT22;8620;51.168;4.154;2023-05-14T16:44:04;17.90;99.90
17007;DHT22;8620;51.168;4.154;2023-05-14T16:46:55;17.90;99.90
17007;DHT22;8620;51.168;4.154;2023-05-14T16:49:30;18.00;99.90
17007;DHT22;8620;51.168;4.154;2023-05-14T16:52:25;17.80;99.90
17007;DHT22;8620;51.168;4.154;2023-05-14T16:55:29;17.60;99.90
17007;DHT22;8620;51.168;4.154;2023-05-14T16:58:27;17.70;99.90
17007;DHT22;8620;51.168;4.154;2023-05-14T17:00:53;17.60;99.90
17007;DHT22;8620;51.168;4.154;2023-05-14T17:03:39;17.80;99.90
17007;DHT22;8620;51.168;4.154;2023-05-14T17:06:42;18.00;99.90
17007;DHT22;8620;51.168;4.154;2023-05-14T17:09:48;17.80;99.90
17007;DHT22;8620;51.168;4.154;2023-05-14T17:12:49;17.50;99.90
17007;DHT22;8620;51.168;4.154;2023-05-14T17:15:38;17.40;99.90
17007;DHT22;8620;51.168;4.154;2023-05-14T17:18:06;17.20;99.90
17007;DHT22;8620;51.168;4.154;2023-05-14T17:20:55;17.30;99.90
17007;DHT22;8620;51.168;4.154;2023-05-14T17:23:21;17.30;99.90
17007;DHT22;8620;51.168;4.154;2023-05-14T17:26:16;17.30;99.90
17007;DHT22;8620;51.168;4.154;2023-05-14T17:28:42;17.30;99.90
17007;DHT22;8620;51.168;4.154;2023-05-14T17:31:08;17.10;99.90
17007;DHT22;8620;51.168;4.154;2023-05-14T17:33:53;17.10;99.90
17007;DHT22;8620;51.168;4.154;2023-05-14T17:36:19;17.20;99.90
17007;DHT22;8620;51.168;4.154;2023-05-14T17:38:52;17.00;99.90
17007;DHT22;8620;51.168;4.154;2023-05-14T17:41:36;17.00;99.90
17007;DHT22;8620;51.168;4.154;2023-05-14T17:44:21;16.90;99.90
17007;DHT22;8620;51.168;4.154;2023-05-14T17:46:50;16.80;99.90
17007;DHT22;8620;51.168;4.154;2023-05-14T17:49:33;16.60;99.90
17007;DHT22;8620;51.168;4.154;2023-05-14T17:52:37;16.60;99.90
17007;DHT22;8620;51.168;4.154;2023-05-14T17:55:48;16.70;99.90
17007;DHT22;8620;51.168;4.154;2023-05-14T17:58:49;16.90;99.90
17007;DHT22;8620;51.168;4.154;2023-05-14T18:01:38;16.50;99.90
17007;DHT22;8620;51.168;4.154;2023-05-14T18:04:39;16.60;99.90
17007;DHT22;8620;51.168;4.154;2023-05-14T18:07:05;16.50;99.90
17007;DHT22;8620;51.168;4.154;2023-05-14T18:13:23;16.70;99.90
17007;DHT22;8620;51.168;4.154;2023-05-14T18:16:41;16.60;99.90
17007;DHT22;8620;51.168;4.154;2023-05-14T18:19:27;16.30;99.90
17007;DHT22;8620;51.168;4.154;2023-05-14T18:22:21;16.30;99.90
17007;DHT22;8620;51.168;4.154;2023-05-14T18:24:49;16.40;99.90
17007;DHT22;8620;51.168;4.154;2023-05-14T18:27:15;16.60;99.90
17007;DHT22;8620;51.168;4.154;2023-05-14T18:29:50;16.40;99.90
17007;DHT22;8620;51.168;4.154;2023-05-14T18:32:23;16.30;99.90
17007;DHT22;8620;51.168;4.154;2023-05-14T18:35:07;16.30;99.90
17007;DHT22;8620;51.168;4.154;2023-05-14T18:38:18;16.10;99.90
17007;DHT22;8620;51.168;4.154;2023-05-14T18:41:25;16.10;99.90
17007;DHT22;8620;51.168;4.154;2023-05-14T18:44:22;16.20;99.90
17007;DHT22;8620;51.168;4.154;2023-05-14T18:47:26;16.10;99.90
17007;DHT22;8620;51.168;4.154;2023-05-14T18:50:32;16.10;99.90
17007;DHT22;8620;51.168;4.154;2023-05-14T18:53:00;15.90;99.90
17007;DHT22;8620;51.168;4.154;2023-05-14T18:55:26;15.80;99.90
17007;DHT22;8620;51.168;4.154;2023-05-14T19:02:16;15.30;99.90
17007;DHT22;8620;51.168;4.154;2023-05-14T19:05:11;15.30;99.90
17007;DHT22;8620;51.168;4.154;2023-05-14T19:07:45;15.50;99.90
17007;DHT22;8620;51.168;4.154;2023-05-14T19:10:29;15.30;99.90
17007;DHT22;8620;51.168;4.154;2023-05-14T19:13:16;15.40;99.90
17007;DHT22;8620;51.168;4.154;2023-05-14T19:15:50;15.30;99.90
17007;DHT22;8620;51.168;4.154;2023-05-14T19:18:42;15.00;99.90
17007;DHT22;8620;51.168;4.154;2023-05-14T19:21:29;15.10;99.90
17007;DHT22;8620;51.168;4.154;2023-05-14T19:24:03;15.00;99.90
17007;DHT22;8620;51.168;4.154;2023-05-14T19:26:47;14.90;99.90
17007;DHT22;8620;51.168;4.154;2023-05-14T19:29:27;15.00;99.90
17007;DHT22;8620;51.168;4.154;2023-05-14T19:32:00;14.80;99.90
17007;DHT22;8620;51.168;4.154;2023-05-14T19:34:27;14.60;99.90
17007;DHT22;8620;51.168;4.154;2023-05-14T19:37:01;14.80;99.90
17007;DHT22;8620;51.168;4.154;2023-05-14T19:39:42;14.80;99.90
17007;DHT22;8620;51.168;4.154;2023-05-14T19:42:08;14.80;99.90
17007;DHT22;8620;51.168;4.154;2023-05-14T19:45:12;14.70;99.90
17007;DHT22;8620;51.168;4.154;2023-05-14T19:47:47;14.80;99.90
17007;DHT22;8620;51.168;4.154;2023-05-14T19:54:24;14.60;99.90
17007;DHT22;8620;51.168;4.154;2023-05-14T19:57:44;14.50;99.90
17007;DHT22;8620;51.168;4.154;2023-05-14T20:00:39;14.70;99.90
17007;DHT22;8620;51.168;4.154;2023-05-14T20:03:29;14.60;99.90
17007;DHT22;8620;51.168;4.154;2023-05-14T20:06:25;14.60;99.90
17007;DHT22;8620;51.168;4.154;2023-05-14T20:09:19;14.50;99.90
17007;DHT22;8620;51.168;4.154;2023-05-14T20:12:04;14.70;99.90
17007;DHT22;8620;51.168;4.154;2023-05-14T20:18:23;14.50;99.90
17007;DHT22;8620;51.168;4.154;2023-05-14T20:21:13;14.30;99.90
17007;DHT22;8620;51.168;4.154;2023-05-14T20:24:20;14.20;99.90
17007;DHT22;8620;51.168;4.154;2023-05-14T20:27:34;14.40;99.90
17007;DHT22;8620;51.168;4.154;2023-05-14T20:30:50;14.40;99.90
17007;DHT22;8620;51.168;4.154;2023-05-14T20:33:49;14.40;99.90
17007;DHT22;8620;51.168;4.154;2023-05-14T20:36:30;14.40;99.90
17007;DHT22;8620;51.168;4.154;2023-05-14T20:39:10;14.20;99.90
17007;DHT22;8620;51.168;4.154;2023-05-14T20:41:48;14.30;99.90
17007;DHT22;8620;51.168;4.154;2023-05-14T20:44:32;14.30;99.90
17007;DHT22;8620;51.168;4.154;2023-05-14T20:47:25;14.20;99.90
17007;DHT22;8620;51.168;4.154;2023-05-14T20:49:56;14.20;99.90
17007;DHT22;8620;51.168;4.154;2023-05-14T20:52:40;14.20;99.90
17007;DHT22;8620;51.168;4.154;2023-05-14T20:55:24;14.30;99.90
17007;DHT22;8620;51.168;4.154;2023-05-14T20:57:56;14.20;99.90
